Time;durP1;ratioP1;P1;durP2;ratioP2;P2;SDS_P1;SDS_P2;PMS_P1;PMS_P2;Temp;Humidity;BMP_temperature;BMP_pressure;BME280_temperature;BME280_humidity;BME280_pressure;Samples;Min_cycle;Max_cycle;Signal;HPM_P1;HPM_P2
2023/04/13 00:00:24;;;;;;;;;;;;;;;8.15;100.00;99049.09;5093080;28;19957;-73
2023/04/13 00:02:56;;;;;;;;;;;;;;;8.03;100.00;99048.25;5074851;28;20394;-74
2023/04/13 00:05:24;;;;;;;;;;;;;;;7.96;100.00;99055.16;5092981;28;19919;-72
2023/04/13 00:08:01;;;;;;;;;;;;;;;7.90;100.00;99059.25;5093051;28;19967;-74
2023/04/13 00:10:30;;;;;;;;;;;;;;;7.84;100.00;99061.28;5074768;28;20393;-75
2023/04/13 00:12:57;;;;;;;;;;;;;;;7.85;100.00;99057.16;5108155;28;19924;-73
2023/04/13 00:15:24;;;;;;;;;;;;;;;7.91;100.00;99058.00;5104664;28;19925;-74
2023/04/13 00:17:52;;;;;;;;;;;;;;;7.82;100.00;99047.56;5073056;28;19948;-74
2023/04/13 00:20:19;;;;;;;;;;;;;;;7.92;100.00;99057.47;5072620;28;19919;-73
2023/04/13 00:22:44;;;;;;;;;;;;;;;7.95;100.00;99062.16;5071424;28;19923;-76
2023/04/13 00:25:11;;;;;;;;;;;;;;;7.98;100.00;99055.44;5072643;28;19917;-74
2023/04/13 00:27:41;;;;;;;;;;;;;;;7.94;100.00;99063.44;5071152;28;20011;-74
2023/04/13 00:30:08;;;;;;;;;;;;;;;7.91;100.00;99058.78;5072872;28;20003;-74
2023/04/13 00:32:35;;;;;;;;;;;;;;;7.88;100.00;99058.97;5072491;28;20381;-76
2023/04/13 00:35:02;;;;;;;;;;;;;;;7.82;100.00;99055.31;5071296;28;19931;-74
2023/04/13 00:37:29;;;;;;;;;;;;;;;7.67;100.00;99057.53;5071400;28;19917;-74
2023/04/13 00:39:58;;;;;;;;;;;;;;;7.60;100.00;99052.28;5071346;28;20026;-73
2023/04/13 00:42:24;;;;;;;;;;;;;;;7.50;100.00;99071.56;5071915;28;19917;-74
2023/04/13 00:44:54;;;;;;;;;;;;;;;7.40;100.00;99058.81;5071381;28;20425;-74
2023/04/13 00:47:25;;;;;;;;;;;;;;;7.29;100.00;99059.47;5071143;28;19912;-74
2023/04/13 00:49:52;;;;;;;;;;;;;;;7.19;100.00;99062.97;5071276;28;20003;-74
2023/04/13 00:52:20;;;;;;;;;;;;;;;7.09;100.00;99062.34;5071189;28;19931;-74
2023/04/13 00:54:55;;;;;;;;;;;;;;;7.02;100.00;99066.44;5071133;28;19916;-75
2023/04/13 00:57:24;;;;;;;;;;;;;;;6.97;100.00;99061.47;5071942;28;19948;-73
2023/04/13 00:59:51;;;;;;;;;;;;;;;6.97;100.00;99066.38;5089463;28;19964;-74
2023/04/13 01:02:23;;;;;;;;;;;;;;;6.96;100.00;99062.75;5073028;28;19924;-74
2023/04/13 01:04:51;;;;;;;;;;;;;;;6.96;100.00;99068.44;5074750;28;20003;-74
2023/04/13 01:07:31;;;;;;;;;;;;;;;6.97;100.00;99069.22;5074913;28;19913;-73
2023/04/13 01:09:59;;;;;;;;;;;;;;;6.93;100.00;99074.31;5075392;28;19987;-73
2023/04/13 01:12:33;;;;;;;;;;;;;;;6.91;100.00;99059.84;5074723;28;19924;-74
2023/04/13 01:15:07;;;;;;;;;;;;;;;6.89;100.00;99062.38;5090561;28;19920;-75
2023/04/13 01:17:55;;;;;;;;;;;;;;;6.85;100.00;99064.66;5073312;28;19967;-73
2023/04/13 01:20:21;;;;;;;;;;;;;;;6.78;100.00;99057.34;5074282;28;20440;-74
2023/04/13 01:23:06;;;;;;;;;;;;;;;6.73;100.00;99068.66;5073074;28;20015;-72
2023/04/13 01:25:38;;;;;;;;;;;;;;;6.66;100.00;99064.16;5073677;28;19919;-73
2023/04/13 01:28:20;;;;;;;;;;;;;;;6.59;100.00;99059.69;5074177;28;19913;-73
2023/04/13 01:30:47;;;;;;;;;;;;;;;6.54;100.00;99051.88;5074397;28;20396;-73
2023/04/13 01:33:15;;;;;;;;;;;;;;;6.49;100.00;99055.44;5075547;28;19916;-73
2023/04/13 01:35:42;;;;;;;;;;;;;;;6.43;100.00;99063.09;5073716;28;19917;-73
2023/04/13 01:38:08;;;;;;;;;;;;;;;6.42;100.00;99058.69;5090914;28;19922;-73
2023/04/13 01:40:39;;;;;;;;;;;;;;;6.42;100.00;99052.25;5075196;28;20369;-74
2023/04/13 01:43:07;;;;;;;;;;;;;;;6.40;100.00;99054.78;5081025;28;19916;-74
2023/04/13 01:45:36;;;;;;;;;;;;;;;6.39;100.00;99047.53;5090927;28;20377;-74
2023/04/13 01:48:21;;;;;;;;;;;;;;;6.40;100.00;99058.41;5075444;28;19912;-73
2023/04/13 01:50:49;;;;;;;;;;;;;;;6.45;100.00;99049.19;5075191;28;19916;-72
2023/04/13 01:53:24;;;;;;;;;;;;;;;6.51;100.00;99044.38;5073943;28;20415;-75
2023/04/13 01:55:52;;;;;;;;;;;;;;;6.65;100.00;99046.34;5075018;28;20007;-75
2023/04/13 01:58:17;;;;;;;;;;;;;;;6.75;100.00;99037.69;5090325;28;19935;-74
2023/04/13 02:00:44;;;;;;;;;;;;;;;6.85;100.00;99036.28;5074132;28;19912;-74
2023/04/13 02:03:11;;;;;;;;;;;;;;;6.94;100.00;99034.06;5074544;28;19966;-75
2023/04/13 02:05:44;;;;;;;;;;;;;;;7.04;100.00;99035.47;5073594;28;19985;-73
2023/04/13 02:08:11;;;;;;;;;;;;;;;7.13;100.00;99042.28;5075025;28;19925;-74
2023/04/13 02:10:41;;;;;;;;;;;;;;;7.18;100.00;99052.88;5075081;28;19913;-73
2023/04/13 02:13:08;;;;;;;;;;;;;;;7.24;100.00;99054.53;5074578;28;19916;-73
2023/04/13 02:15:36;;;;;;;;;;;;;;;7.31;100.00;99050.47;5091322;28;19927;-75
2023/04/13 02:18:04;;;;;;;;;;;;;;;7.36;100.00;99058.25;5110698;28;19916;-74
2023/04/13 02:20:31;;;;;;;;;;;;;;;7.11;100.00;99025.72;5101701;28;19915;-74
2023/04/13 02:22:57;;;;;;;;;;;;;;;7.35;100.00;99062.38;5110687;28;19916;-77
2023/04/13 02:25:31;;;;;;;;;;;;;;;7.37;100.00;99051.31;5094874;28;20027;-75
2023/04/13 02:27:58;;;;;;;;;;;;;;;7.38;100.00;99053.63;5094678;28;19923;-73
2023/04/13 02:30:26;;;;;;;;;;;;;;;7.39;100.00;99065.78;5076590;28;19948;-74
2023/04/13 02:32:53;;;;;;;;;;;;;;;7.38;100.00;99059.31;5096946;28;20016;-72
2023/04/13 02:35:20;;;;;;;;;;;;;;;7.39;100.00;99054.41;5113038;28;19916;-74
2023/04/13 02:37:47;;;;;;;;;;;;;;;7.40;100.00;99058.81;5113561;28;19962;-73
2023/04/13 02:40:13;;;;;;;;;;;;;;;7.41;100.00;99063.22;5112135;28;19916;-73
2023/04/13 02:42:41;;;;;;;;;;;;;;;7.39;100.00;99055.19;5094534;28;19912;-73
2023/04/13 02:45:11;;;;;;;;;;;;;;;7.40;100.00;99061.66;5097587;28;19923;-72
2023/04/13 02:47:44;;;;;;;;;;;;;;;7.39;100.00;99060.88;5094719;28;19916;-75
2023/04/13 02:50:11;;;;;;;;;;;;;;;7.37;100.00;99062.66;5094173;28;19947;-72
2023/04/13 02:52:45;;;;;;;;;;;;;;;7.36;100.00;99055.41;5094163;28;19959;-73
2023/04/13 02:55:11;;;;;;;;;;;;;;;7.37;100.00;99057.00;5094153;28;19916;-72
2023/04/13 02:57:43;;;;;;;;;;;;;;;7.41;100.00;99051.84;5109872;28;19937;-73
2023/04/13 03:00:10;;;;;;;;;;;;;;;7.45;100.00;99052.41;5094098;28;19911;-74
2023/04/13 03:02:36;;;;;;;;;;;;;;;7.44;100.00;99056.53;5094340;28;19987;-76
2023/04/13 03:05:11;;;;;;;;;;;;;;;7.43;100.00;99054.97;5092729;28;19916;-73
2023/04/13 03:07:38;;;;;;;;;;;;;;;7.39;100.00;99057.25;5094007;28;20372;-74
2023/04/13 03:10:04;;;;;;;;;;;;;;;7.35;100.00;99054.63;5092997;28;19912;-73
2023/04/13 03:12:32;;;;;;;;;;;;;;;7.32;100.00;99057.72;5092589;28;20369;-74
2023/04/13 03:15:10;;;;;;;;;;;;;;;7.25;100.00;99050.41;5092491;28;19943;-73
2023/04/13 03:17:40;;;;;;;;;;;;;;;7.21;100.00;99060.44;5093426;28;19912;-74
2023/04/13 03:20:08;;;;;;;;;;;;;;;7.17;100.00;99057.81;5093070;28;19957;-75
2023/04/13 03:22:35;;;;;;;;;;;;;;;7.12;100.00;99072.75;5093214;28;19912;-73
2023/04/13 03:25:01;;;;;;;;;;;;;;;7.13;100.00;99068.59;5093984;28;20288;-73
2023/04/13 03:27:27;;;;;;;;;;;;;;;7.18;100.00;99062.19;5092013;28;19916;-73
2023/04/13 03:29:53;;;;;;;;;;;;;;;7.21;100.00;99068.94;5093195;28;20294;-72
2023/04/13 03:32:21;;;;;;;;;;;;;;;7.22;100.00;99074.16;5092942;28;19912;-73
2023/04/13 03:34:46;;;;;;;;;;;;;;;7.23;100.00;99075.69;5093443;28;19913;-73
2023/04/13 03:37:13;;;;;;;;;;;;;;;7.26;100.00;99071.06;5092333;28;20373;-74
2023/04/13 03:39:39;;;;;;;;;;;;;;;7.29;100.00;99076.53;5093821;28;20373;-74
2023/04/13 03:42:06;;;;;;;;;;;;;;;7.32;100.00;99083.28;5092765;28;19981;-74
2023/04/13 03:44:31;;;;;;;;;;;;;;;7.34;100.00;99070.13;5092509;28;19912;-74
2023/04/13 03:46:58;;;;;;;;;;;;;;;7.40;100.00;99075.88;5075370;28;20334;-73
2023/04/13 03:49:23;;;;;;;;;;;;;;;7.45;100.00;99075.16;5076402;28;19912;-73
2023/04/13 03:51:49;;;;;;;;;;;;;;;7.51;100.00;99075.97;5075450;28;19912;-72
2023/04/13 03:54:16;;;;;;;;;;;;;;;7.54;100.00;99072.13;5093088;28;19923;-74
2023/04/13 03:56:42;;;;;;;;;;;;;;;7.60;100.00;99077.88;5093383;28;19947;-73
2023/04/13 03:59:08;;;;;;;;;;;;;;;7.63;100.00;99080.47;5093133;28;20405;-75
2023/04/13 04:01:35;;;;;;;;;;;;;;;7.67;100.00;99077.44;5074961;28;19918;-73
2023/04/13 04:04:00;;;;;;;;;;;;;;;7.71;100.00;99075.13;5093226;28;20012;-73
2023/04/13 04:06:27;;;;;;;;;;;;;;;7.74;100.00;99085.50;5093351;28;19959;-73
2023/04/13 04:08:53;;;;;;;;;;;;;;;7.77;100.00;99090.16;5074968;28;19918;-73
2023/04/13 04:11:18;;;;;;;;;;;;;;;7.79;100.00;99096.13;5093276;28;19942;-72
2023/04/13 04:13:45;;;;;;;;;;;;;;;7.81;100.00;99093.59;5092453;28;19916;-73
2023/04/13 04:16:10;;;;;;;;;;;;;;;7.82;100.00;99095.13;5093341;28;19916;-72
2023/04/13 04:18:36;;;;;;;;;;;;;;;7.77;100.00;99093.78;5092717;28;19912;-73
2023/04/13 04:21:05;;;;;;;;;;;;;;;7.77;100.00;99095.84;5092848;28;19912;-74
2023/04/13 04:23:33;;;;;;;;;;;;;;;7.79;100.00;99093.28;5092897;28;20317;-73
2023/04/13 04:26:01;;;;;;;;;;;;;;;7.79;100.00;99102.59;5092995;28;20006;-73
2023/04/13 04:28:29;;;;;;;;;;;;;;;7.79;100.00;99108.28;5108586;28;20302;-73
2023/04/13 04:31:09;;;;;;;;;;;;;;;7.81;100.00;99111.44;5091206;28;20284;-74
2023/04/13 04:33:37;;;;;;;;;;;;;;;7.81;100.00;99117.13;5093484;28;19912;-75
2023/04/13 04:36:08;;;;;;;;;;;;;;;7.87;100.00;99122.81;5095707;28;19916;-77
2023/04/13 04:38:34;;;;;;;;;;;;;;;7.91;100.00;99127.03;5096867;28;19956;-74
2023/04/13 04:41:01;;;;;;;;;;;;;;;7.97;100.00;99130.69;5096728;28;19981;-73
2023/04/13 04:43:28;;;;;;;;;;;;;;;7.97;100.00;99129.91;5096580;28;19920;-76
2023/04/13 04:45:58;;;;;;;;;;;;;;;7.98;100.00;99129.41;5112291;28;19939;-73
2023/04/13 04:48:25;;;;;;;;;;;;;;;8.04;100.00;99126.59;5111940;28;19916;-74
2023/04/13 04:50:51;;;;;;;;;;;;;;;8.03;100.00;99129.94;5095192;28;20011;-74
2023/04/13 04:53:17;;;;;;;;;;;;;;;8.06;100.00;99137.50;5096195;28;20391;-80
2023/04/13 04:55:45;;;;;;;;;;;;;;;8.13;100.00;99143.50;5096377;28;19923;-81
2023/04/13 04:58:10;;;;;;;;;;;;;;;8.19;100.00;99141.50;5097163;28;19916;-81
2023/04/13 05:00:36;;;;;;;;;;;;;;;8.28;100.00;99151.91;5096443;28;19973;-79
2023/04/13 05:03:01;;;;;;;;;;;;;;;8.37;100.00;99154.56;5096459;28;19919;-80
2023/04/13 05:05:29;;;;;;;;;;;;;;;8.44;100.00;99156.19;5096839;28;19923;-80
2023/04/13 05:07:54;;;;;;;;;;;;;;;8.51;100.00;99158.56;5096505;28;20408;-79
2023/04/13 05:10:23;;;;;;;;;;;;;;;8.59;100.00;99159.66;5096964;28;19955;-78
2023/04/13 05:12:49;;;;;;;;;;;;;;;8.65;100.00;99152.72;5096647;28;20448;-79
2023/04/13 05:15:15;;;;;;;;;;;;;;;8.72;100.00;99160.00;5093295;28;19929;-81
2023/04/13 05:17:45;;;;;;;;;;;;;;;8.77;100.00;99153.56;5075741;28;19916;-79
2023/04/13 05:20:15;;;;;;;;;;;;;;;8.86;100.00;99161.09;5075135;28;19916;-80
2023/04/13 05:22:41;;;;;;;;;;;;;;;8.90;100.00;99159.59;5076000;28;19912;-79
2023/04/13 05:25:06;;;;;;;;;;;;;;;8.98;100.00;99157.03;5075339;28;19935;-76
2023/04/13 05:27:32;;;;;;;;;;;;;;;9.02;100.00;99149.81;5073758;28;20280;-77
2023/04/13 05:29:57;;;;;;;;;;;;;;;9.04;100.00;99146.47;5074232;28;19908;-76
2023/04/13 05:32:23;;;;;;;;;;;;;;;9.07;100.00;99148.28;5073391;28;19925;-79
2023/04/13 05:34:48;;;;;;;;;;;;;;;9.11;100.00;99155.28;5073503;28;19931;-78
2023/04/13 05:37:14;;;;;;;;;;;;;;;9.13;100.00;99155.56;5072204;28;20002;-77
2023/04/13 05:39:39;;;;;;;;;;;;;;;9.09;100.00;99155.03;5072270;28;19935;-76
2023/04/13 05:42:05;;;;;;;;;;;;;;;9.10;100.00;99155.81;5073186;28;19920;-78
2023/04/13 05:44:30;;;;;;;;;;;;;;;9.11;100.00;99154.50;5073130;28;19954;-78
2023/04/13 05:46:56;;;;;;;;;;;;;;;9.15;100.00;99158.66;5073244;28;20004;-77
2023/04/13 05:49:21;;;;;;;;;;;;;;;9.18;100.00;99154.03;5072118;28;19916;-75
2023/04/13 05:51:47;;;;;;;;;;;;;;;9.19;100.00;99162.09;5073536;28;20034;-77
2023/04/13 05:54:12;;;;;;;;;;;;;;;9.19;100.00;99162.09;5074400;28;19917;-79
2023/04/13 05:56:38;;;;;;;;;;;;;;;9.18;100.00;99169.06;5074969;28;19919;-79
2023/04/13 05:59:03;;;;;;;;;;;;;;;9.17;100.00;99176.06;5071874;28;19920;-79
2023/04/13 06:01:29;;;;;;;;;;;;;;;9.14;100.00;99171.38;5073360;28;20297;-78
2023/04/13 06:03:55;;;;;;;;;;;;;;;9.12;100.00;99173.94;5073086;28;19939;-77
2023/04/13 06:06:20;;;;;;;;;;;;;;;9.13;100.00;99177.59;5072879;28;20370;-78
2023/04/13 06:08:45;;;;;;;;;;;;;;;9.15;100.00;99178.63;5071642;28;20267;-79
2023/04/13 06:11:11;;;;;;;;;;;;;;;9.20;100.00;99179.94;5072974;28;19939;-76
2023/04/13 06:13:36;;;;;;;;;;;;;;;9.26;100.00;99177.91;5107093;28;20069;-78
2023/04/13 06:16:01;;;;;;;;;;;;;;;9.33;100.00;99180.28;5095467;28;19943;-78
2023/04/13 06:18:27;;;;;;;;;;;;;;;9.36;100.00;99184.16;5095634;28;20479;-78
2023/04/13 06:20:52;;;;;;;;;;;;;;;9.42;100.00;99188.59;5095786;28;19916;-78
2023/04/13 06:23:18;;;;;;;;;;;;;;;9.50;100.00;99191.72;5095255;28;19919;-78
2023/04/13 06:25:43;;;;;;;;;;;;;;;9.56;100.00;99198.22;5095348;28;19943;-78
2023/04/13 06:28:09;;;;;;;;;;;;;;;9.59;100.00;99194.38;5076949;28;20421;-78
2023/04/13 06:30:35;;;;;;;;;;;;;;;9.60;100.00;99198.75;5076988;28;19912;-79
2023/04/13 06:33:00;;;;;;;;;;;;;;;9.63;100.00;99197.75;5095149;28;20011;-78
2023/04/13 06:35:26;;;;;;;;;;;;;;;9.63;100.00;99209.94;5094949;28;19923;-78
2023/04/13 06:37:51;;;;;;;;;;;;;;;9.63;100.00;99209.94;5076802;28;19919;-79
2023/04/13 06:40:16;;;;;;;;;;;;;;;9.60;100.00;99202.41;5095641;28;19913;-78
2023/04/13 06:42:42;;;;;;;;;;;;;;;9.57;100.00;99214.06;5094915;28;20365;-78
2023/04/13 06:45:08;;;;;;;;;;;;;;;9.55;100.00;99214.56;5095358;28;19950;-79
2023/04/13 06:47:34;;;;;;;;;;;;;;;9.58;100.00;99219.25;5095623;28;19912;-78
2023/04/13 06:50:05;;;;;;;;;;;;;;;9.63;100.00;99221.34;5095829;28;19927;-77
2023/04/13 06:52:32;;;;;;;;;;;;;;;9.66;100.00;99219.53;5106053;28;19935;-79
2023/04/13 06:54:57;;;;;;;;;;;;;;;9.68;100.00;99232.00;5113444;28;19916;-78
2023/04/13 06:57:22;;;;;;;;;;;;;;;9.74;100.00;99234.13;5110964;28;19919;-79
2023/04/13 06:59:47;;;;;;;;;;;;;;;9.76;100.00;99238.00;5110162;28;19912;-82
2023/04/13 07:02:13;;;;;;;;;;;;;;;9.69;100.00;99235.63;5106644;28;19912;-79
2023/04/13 07:04:38;;;;;;;;;;;;;;;9.60;100.00;99235.84;5103937;28;19912;-78
2023/04/13 07:07:03;;;;;;;;;;;;;;;9.48;100.00;99235.03;5102134;28;20254;-80
2023/04/13 07:09:31;;;;;;;;;;;;;;;9.55;100.00;99242.31;5096580;28;19920;-83
2023/04/13 07:12:02;;;;;;;;;;;;;;;9.74;100.00;99231.28;5095908;28;19934;-83
2023/04/13 07:14:31;;;;;;;;;;;;;;;9.97;100.00;99235.75;5095566;28;19931;-83
2023/04/13 07:16:56;;;;;;;;;;;;;;;10.24;100.00;99251.34;5075019;28;19912;-83
2023/04/13 07:19:22;;;;;;;;;;;;;;;10.42;100.00;99243.09;5074508;28;20368;-83
2023/04/13 07:21:48;;;;;;;;;;;;;;;10.65;100.00;99243.09;5074451;28;19912;-82
2023/04/13 07:24:13;;;;;;;;;;;;;;;10.90;100.00;99239.19;5074299;28;19913;-81
2023/04/13 07:26:40;;;;;;;;;;;;;;;11.11;100.00;99239.69;5074477;28;19908;-79
2023/04/13 07:29:12;;;;;;;;;;;;;;;11.41;100.00;99240.66;5078244;28;19969;-77
2023/04/13 07:31:46;;;;;;;;;;;;;;;11.63;100.00;99246.28;5094911;28;19912;-75
2023/04/13 07:34:12;;;;;;;;;;;;;;;11.71;100.00;99246.53;5094786;28;19920;-76
2023/04/13 07:36:38;;;;;;;;;;;;;;;11.58;100.00;99249.19;5094735;28;20354;-77
2023/04/13 07:39:07;;;;;;;;;;;;;;;11.40;100.00;99245.63;5108520;28;19920;-78
2023/04/13 07:41:34;;;;;;;;;;;;;;;11.44;100.00;99247.41;5109311;28;20377;-78
2023/04/13 07:44:02;;;;;;;;;;;;;;;11.47;100.00;99250.00;5109457;28;20019;-79
2023/04/13 07:46:28;;;;;;;;;;;;;;;11.62;100.00;99258.25;5110843;28;19927;-78
2023/04/13 07:48:55;;;;;;;;;;;;;;;11.80;100.00;99258.47;5111558;28;19912;-78
2023/04/13 07:51:21;;;;;;;;;;;;;;;11.88;100.00;99263.63;5095699;28;19971;-77
2023/04/13 07:53:48;;;;;;;;;;;;;;;11.87;100.00;99262.84;5113079;28;19927;-77
2023/04/13 07:56:14;;;;;;;;;;;;;;;11.86;100.00;99261.31;5097189;28;19966;-77
2023/04/13 07:58:40;;;;;;;;;;;;;;;11.80;100.00;99260.56;5093485;28;20057;-80
2023/04/13 08:01:07;;;;;;;;;;;;;;;11.77;100.00;99262.38;5075900;28;19916;-78
2023/04/13 08:03:34;;;;;;;;;;;;;;;11.57;100.00;99265.56;5094962;28;20018;-79
2023/04/13 08:06:01;;;;;;;;;;;;;;;11.33;100.00;99271.88;5094588;28;20017;-81
2023/04/13 08:08:28;;;;;;;;;;;;;;;11.08;100.00;99275.00;5097393;28;19919;-81
2023/04/13 08:10:54;;;;;;;;;;;;;;;11.08;100.00;99280.72;5080373;28;19912;-81
2023/04/13 08:13:20;;;;;;;;;;;;;;;11.18;100.00;99277.09;5098533;28;19916;-81
2023/04/13 08:15:46;;;;;;;;;;;;;;;11.20;100.00;99285.16;5100006;28;20015;-78
2023/04/13 08:18:11;;;;;;;;;;;;;;;11.18;100.00;99287.75;5102857;28;20007;-75
2023/04/13 08:20:38;;;;;;;;;;;;;;;10.99;100.00;99291.13;5098843;28;19924;-80
2023/04/13 08:23:04;;;;;;;;;;;;;;;10.96;100.00;99285.69;5106176;28;19912;-82
2023/04/13 08:25:31;;;;;;;;;;;;;;;10.85;100.00;99292.19;5098923;28;20305;-81
2023/04/13 08:27:57;;;;;;;;;;;;;;;10.69;100.00;99298.66;5112968;28;20276;-82
2023/04/13 08:30:22;;;;;;;;;;;;;;;10.79;100.00;99285.69;5099131;28;20337;-79
2023/04/13 08:32:48;;;;;;;;;;;;;;;10.90;100.00;99288.56;5106122;28;19916;-78
2023/04/13 08:35:15;;;;;;;;;;;;;;;10.98;100.00;99285.94;5113502;28;20018;-79
2023/04/13 08:37:41;;;;;;;;;;;;;;;10.87;100.00;99297.41;5111403;28;19912;-80
2023/04/13 08:40:11;;;;;;;;;;;;;;;10.60;100.00;99310.34;5093625;28;19912;-79
2023/04/13 08:42:41;;;;;;;;;;;;;;;10.37;100.00;99300.19;5110999;28;20407;-80
2023/04/13 08:45:07;;;;;;;;;;;;;;;10.31;100.00;99305.91;5111547;28;20380;-78
2023/04/13 08:47:32;;;;;;;;;;;;;;;10.22;100.00;99306.13;5127088;28;19912;-80
2023/04/13 08:50:07;;;;;;;;;;;;;;;10.29;100.00;99304.84;5126802;28;19928;-79
2023/04/13 08:52:37;;;;;;;;;;;;;;;10.37;100.00;99300.97;5110658;28;19983;-79
2023/04/13 08:55:04;;;;;;;;;;;;;;;10.51;100.00;99304.91;5109165;28;19919;-78
2023/04/13 08:57:30;;;;;;;;;;;;;;;10.64;100.00;99304.38;5108204;28;19938;-79
2023/04/13 08:59:56;;;;;;;;;;;;;;;10.79;100.00;99299.97;5124574;28;19916;-79
2023/04/13 09:02:31;;;;;;;;;;;;;;;10.79;100.00;99296.34;5125043;28;20371;-78
2023/04/13 09:04:59;;;;;;;;;;;;;;;10.84;100.00;99302.06;5109261;28;19919;-79
2023/04/13 09:07:27;;;;;;;;;;;;;;;10.97;100.00;99301.56;5124668;28;19916;-79
2023/04/13 09:09:55;;;;;;;;;;;;;;;11.21;100.00;99310.41;5122477;28;20376;-78
2023/04/13 09:12:21;;;;;;;;;;;;;;;11.18;100.00;99302.84;5117163;28;20316;-79
2023/04/13 09:14:54;;;;;;;;;;;;;;;11.30;100.00;99304.41;5100000;28;19924;-79
2023/04/13 09:17:27;;;;;;;;;;;;;;;11.40;100.00;99308.53;5101740;28;19912;-78
2023/04/13 09:19:55;;;;;;;;;;;;;;;11.61;100.00;99306.16;5099716;28;19923;-78
2023/04/13 09:22:21;;;;;;;;;;;;;;;11.74;100.00;99303.50;5116660;28;19965;-78
2023/04/13 09:24:47;;;;;;;;;;;;;;;11.76;100.00;99300.88;5101372;28;20372;-79
2023/04/13 09:27:20;;;;;;;;;;;;;;;11.88;100.00;99300.84;5118031;28;19920;-79
2023/04/13 09:29:53;;;;;;;;;;;;;;;11.95;100.00;99294.56;5106111;28;19974;-80
2023/04/13 09:32:31;;;;;;;;;;;;;;;12.03;100.00;99290.63;5086246;28;19951;-79
2023/04/13 09:35:03;;;;;;;;;;;;;;;12.08;100.00;99289.03;5100025;28;20007;-80
2023/04/13 09:37:28;;;;;;;;;;;;;;;12.18;100.00;99299.66;5096776;28;19912;-79
2023/04/13 09:39:53;;;;;;;;;;;;;;;12.33;100.00;99302.19;5096259;28;20063;-81
2023/04/13 09:42:19;;;;;;;;;;;;;;;12.52;100.00;99303.13;5126865;28;19912;-82
2023/04/13 09:44:55;;;;;;;;;;;;;;;12.62;100.00;99295.00;5110050;28;19913;-82
2023/04/13 09:47:22;;;;;;;;;;;;;;;12.68;100.00;99305.13;5126547;28;19931;-82
2023/04/13 09:49:48;;;;;;;;;;;;;;;12.86;100.00;99297.94;5110215;28;19952;-82
2023/04/13 09:52:24;;;;;;;;;;;;;;;13.02;100.00;99302.75;5126979;28;19966;-83
2023/04/13 09:54:51;;;;;;;;;;;;;;;13.11;100.00;99304.50;5118385;28;19926;-81
2023/04/13 09:57:30;;;;;;;;;;;;;;;13.15;100.00;99310.72;5099380;28;19952;-82
2023/04/13 09:59:59;;;;;;;;;;;;;;;13.10;100.00;99317.28;5096859;28;19912;-81
2023/04/13 10:02:26;;;;;;;;;;;;;;;13.08;100.00;99319.91;5111529;28;19920;-81
2023/04/13 10:04:52;;;;;;;;;;;;;;;13.11;100.00;99316.75;5111591;28;20330;-82
2023/04/13 10:07:18;;;;;;;;;;;;;;;13.09;100.00;99316.53;5096218;28;19943;-82
2023/04/13 10:09:43;;;;;;;;;;;;;;;13.11;100.00;99328.22;5095346;28;19912;-82
2023/04/13 10:12:12;;;;;;;;;;;;;;;13.01;100.00;99317.63;5095507;28;20254;-80
2023/04/13 10:14:39;;;;;;;;;;;;;;;12.93;100.00;99328.13;5095572;28;20393;-80
2023/04/13 10:17:26;;;;;;;;;;;;;;;12.91;100.00;99322.91;5110739;28;19955;-80
2023/04/13 10:19:53;;;;;;;;;;;;;;;12.91;100.00;99325.00;5110881;28;19958;-76
2023/04/13 10:22:19;;;;;;;;;;;;;;;12.89;100.00;99321.91;5095113;28;20022;-76
2023/04/13 10:24:44;;;;;;;;;;;;;;;12.77;100.00;99329.03;5094805;28;19966;-77
2023/04/13 10:27:19;;;;;;;;;;;;;;;12.67;100.00;99329.34;5110633;28;19919;-77
2023/04/13 10:29:46;;;;;;;;;;;;;;;12.69;100.00;99332.47;5094600;28;19913;-77
2023/04/13 10:32:24;;;;;;;;;;;;;;;12.68;100.00;99338.72;5094670;28;19916;-77
2023/04/13 10:34:50;;;;;;;;;;;;;;;12.75;100.00;99340.25;5094588;28;19923;-77
2023/04/13 10:37:19;;;;;;;;;;;;;;;12.79;100.00;99338.66;5094890;28;19912;-77
2023/04/13 10:39:45;;;;;;;;;;;;;;;12.72;100.00;99347.03;5076742;28;19912;-77
2023/04/13 10:42:12;;;;;;;;;;;;;;;12.50;100.00;99347.97;5094980;28;20357;-76
2023/04/13 10:44:44;;;;;;;;;;;;;;;12.37;100.00;99344.91;5095260;28;19966;-76
2023/04/13 10:47:10;;;;;;;;;;;;;;;12.10;100.00;99352.31;5076832;28;19912;-77
2023/04/13 10:49:37;;;;;;;;;;;;;;;12.00;100.00;99359.63;5110265;28;20353;-77
2023/04/13 10:52:02;;;;;;;;;;;;;;;11.74;100.00;99365.69;5094080;28;20400;-77
2023/04/13 10:54:29;;;;;;;;;;;;;;;11.70;100.00;99371.69;5094052;28;19951;-78
2023/04/13 10:56:57;;;;;;;;;;;;;;;11.54;100.00;99371.69;5093977;28;20289;-76
2023/04/13 10:59:23;;;;;;;;;;;;;;;11.30;100.00;99372.25;5094207;28;20023;-76
2023/04/13 11:01:48;;;;;;;;;;;;;;;11.05;100.00;99370.41;5109586;28;20296;-78
2023/04/13 11:04:14;;;;;;;;;;;;;;;11.17;100.00;99380.59;5094295;28;19962;-75
2023/04/13 11:06:43;;;;;;;;;;;;;;;11.16;100.00;99376.16;5109920;28;19961;-77
2023/04/13 11:09:10;;;;;;;;;;;;;;;11.33;100.00;99383.44;5109766;28;19916;-76
2023/04/13 11:11:36;;;;;;;;;;;;;;;11.68;100.00;99380.00;5110067;28;19957;-77
2023/04/13 11:14:03;;;;;;;;;;;;;;;11.84;100.00;99381.28;5109884;28;19928;-77
2023/04/13 11:16:29;;;;;;;;;;;;;;;12.05;100.00;99396.84;5110397;28;19934;-76
2023/04/13 11:19:03;;;;;;;;;;;;;;;11.78;100.00;99404.19;5110984;28;19912;-77
2023/04/13 11:21:36;;;;;;;;;;;;;;;11.67;100.00;99397.69;5111295;28;20015;-77
2023/04/13 11:24:03;;;;;;;;;;;;;;;11.30;100.00;99412.28;5109189;28;19935;-76
2023/04/13 11:26:38;;;;;;;;;;;;;;;11.12;100.00;99407.88;5094664;28;19937;-78
2023/04/13 11:29:05;;;;;;;;;;;;;;;11.19;100.00;99412.28;5094303;28;19992;-74
2023/04/13 11:31:40;;;;;;;;;;;;;;;11.29;100.00;99402.16;5109660;28;19916;-76
2023/04/13 11:34:08;;;;;;;;;;;;;;;11.45;100.00;99400.59;5110130;28;20391;-77
2023/04/13 11:36:33;;;;;;;;;;;;;;;11.68;100.00;99408.63;5116411;28;19995;-77
2023/04/13 11:39:04;;;;;;;;;;;;;;;12.05;100.00;99405.44;5109506;28;20003;-76
2023/04/13 11:41:31;;;;;;;;;;;;;;;12.43;100.00;99408.69;5093744;28;19951;-77
2023/04/13 11:44:01;;;;;;;;;;;;;;;12.42;100.00;99410.00;5108968;28;20372;-76
2023/04/13 11:46:28;;;;;;;;;;;;;;;12.40;100.00;99401.94;5093517;28;19918;-77
2023/04/13 11:48:54;;;;;;;;;;;;;;;12.42;100.00;99395.66;5109055;28;19920;-76
2023/04/13 11:51:20;;;;;;;;;;;;;;;12.36;100.00;99401.41;5109158;28;20050;-76
2023/04/13 11:53:48;;;;;;;;;;;;;;;12.37;100.00;99402.19;5108995;28;20353;-77
2023/04/13 11:56:13;;;;;;;;;;;;;;;12.49;100.00;99395.91;5108995;28;19920;-75
2023/04/13 11:58:43;;;;;;;;;;;;;;;12.40;100.00;99396.22;5093496;28;19995;-76
2023/04/13 12:01:08;;;;;;;;;;;;;;;12.38;100.00;99390.22;5093305;28;19944;-76
2023/04/13 12:03:35;;;;;;;;;;;;;;;12.39;100.00;99388.91;5093052;28;20023;-77
2023/04/13 12:06:00;;;;;;;;;;;;;;;12.48;100.00;99396.41;5092846;28;20374;-78
2023/04/13 12:08:28;;;;;;;;;;;;;;;12.55;100.00;99396.63;5109075;28;20006;-75
2023/04/13 12:10:56;;;;;;;;;;;;;;;12.76;100.00;99396.25;5093894;28;20046;-77
2023/04/13 12:13:22;;;;;;;;;;;;;;;13.05;100.00;99386.94;5109956;28;19950;-83
2023/04/13 12:15:48;;;;;;;;;;;;;;;13.27;100.00;99383.91;5093066;28;19920;-84
2023/04/13 12:18:15;;;;;;;;;;;;;;;13.39;100.00;99396.06;5093446;28;20388;-84
2023/04/13 12:20:42;;;;;;;;;;;;;;;13.53;100.00;99389.19;5094008;28;19912;-84
2023/04/13 12:23:17;;;;;;;;;;;;;;;13.59;100.00;99397.75;5109425;28;19916;-81
2023/04/13 12:25:56;;;;;;;;;;;;;;;13.41;100.00;99402.81;5075490;28;19935;-85
2023/04/13 12:28:21;;;;;;;;;;;;;;;13.58;100.00;99404.81;5094711;28;19912;-84
2023/04/13 12:30:47;;;;;;;;;;;;;;;13.55;100.00;99404.56;5109815;28;20004;-82
2023/04/13 12:33:13;;;;;;;;;;;;;;;13.25;100.00;99411.56;5091900;28;20253;-83
2023/04/13 12:35:38;;;;;;;;;;;;;;;13.07;100.00;99401.53;5074392;28;19912;-83
2023/04/13 12:38:04;;;;;;;;;;;;;;;13.05;100.00;99407.00;5089970;28;19912;-83
2023/04/13 12:40:29;;;;;;;;;;;;;;;13.23;100.00;99400.63;5106933;28;19913;-83
2023/04/13 12:42:54;;;;;;;;;;;;;;;13.26;100.00;99402.44;5091190;28;20007;-81
2023/04/13 12:45:19;;;;;;;;;;;;;;;12.95;100.00;99406.56;5091073;28;19962;-82